Time;durP1;ratioP1;P1;durP2;ratioP2;P2;SDS_P1;SDS_P2;PMS_P1;PMS_P2;Temp;Humidity;BMP_temperature;BMP_pressure;BME280_temperature;BME280_humidity;BME280_pressure;Samples;Min_cycle;Max_cycle;Signal;HPM_P1;HPM_P2
2022/08/08 00:01:56;;;;;;;;;;;589.50;2432.00;;;;;;5039608;28;19931;-56
2022/08/08 00:04:21;;;;;;;;;;;589.50;2432.00;;;;;;5078709;28;19962;-56
2022/08/08 00:07:05;;;;;;;;;;;589.50;2432.00;;;;;;5081200;28;19920;-57
2022/08/08 00:09:39;;;;;;;;;;;589.40;2432.00;;;;;;5074795;28;20335;-54
2022/08/08 00:12:07;;;;;;;;;;;589.50;2432.00;;;;;;5080346;28;20307;-56
2022/08/08 00:14:33;;;;;;;;;;;589.50;2432.00;;;;;;5080015;28;20281;-58
2022/08/08 00:17:06;;;;;;;;;;;589.50;2432.00;;;;;;5088335;28;20024;-57
2022/08/08 00:19:41;;;;;;;;;;;589.40;2432.00;;;;;;5090934;28;19977;-57
2022/08/08 00:22:13;;;;;;;;;;;589.20;2432.00;;;;;;5091271;28;19931;-55
2022/08/08 00:24:42;;;;;;;;;;;589.10;2432.00;;;;;;5091477;28;19912;-56
2022/08/08 00:27:09;;;;;;;;;;;589.10;2432.00;;;;;;5095385;28;19923;-58
2022/08/08 00:29:43;;;;;;;;;;;589.10;2432.00;;;;;;5094992;28;19917;-57
2022/08/08 00:32:28;;;;;;;;;;;589.00;2432.00;;;;;;5095203;28;19916;-57
2022/08/08 00:35:09;;;;;;;;;;;589.00;2432.00;;;;;;5094431;28;19908;-56
2022/08/08 00:37:50;;;;;;;;;;;589.10;2432.00;;;;;;5094820;28;20477;-55
2022/08/08 00:40:18;;;;;;;;;;;589.10;2432.00;;;;;;5094958;28;19908;-57
2022/08/08 00:43:02;;;;;;;;;;;589.10;2432.00;;;;;;5094876;28;19999;-58
2022/08/08 00:45:46;;;;;;;;;;;589.10;2432.00;;;;;;5095058;28;19912;-57
2022/08/08 00:48:34;;;;;;;;;;;589.10;2432.00;;;;;;5094643;28;19924;-56
2022/08/08 00:51:29;;;;;;;;;;;589.00;2432.00;;;;;;5094973;28;19908;-57
2022/08/08 00:53:57;;;;;;;;;;;588.90;2432.00;;;;;;5052166;28;19909;-57
2022/08/08 00:56:43;;;;;;;;;;;588.90;2432.00;;;;;;5052189;28;19909;-57
2022/08/08 00:59:27;;;;;;;;;;;588.80;2432.00;;;;;;5038506;28;19913;-55
2022/08/08 01:02:11;;;;;;;;;;;588.80;2432.00;;;;;;5052083;28;19925;-56
2022/08/08 01:04:54;;;;;;;;;;;588.80;2432.00;;;;;;5052163;28;20378;-55
2022/08/08 01:07:38;;;;;;;;;;;564.10;2432.00;;;;;;5051995;28;19917;-57
2022/08/08 01:10:04;;;;;;;;;;;588.80;2432.00;;;;;;5051794;28;19916;-56
2022/08/08 01:12:36;;;;;;;;;;;588.80;2432.00;;;;;;5052030;28;19909;-55
2022/08/08 01:15:20;;;;;;;;;;;588.80;2432.00;;;;;;5051817;28;20346;-56
2022/08/08 01:18:00;;;;;;;;;;;564.10;2432.00;;;;;;5051871;28;20008;-56
2022/08/08 01:20:49;;;;;;;;;;;564.10;2432.00;;;;;;5051782;28;19915;-57
2022/08/08 01:23:33;;;;;;;;;;;564.10;2432.00;;;;;;5051512;28;19913;-56
2022/08/08 01:26:17;;;;;;;;;;;564.10;2432.00;;;;;;5051782;28;19917;-56
2022/08/08 01:28:45;;;;;;;;;;;588.80;2432.00;;;;;;5051543;28;19917;-57
2022/08/08 01:31:30;;;;;;;;;;;564.10;2432.00;;;;;;5087667;28;19908;-57
2022/08/08 01:34:10;;;;;;;;;;;564.10;2432.00;;;;;;5093790;28;19923;-57
2022/08/08 01:36:36;;;;;;;;;;;564.10;2432.00;;;;;;5092598;28;19959;-56
2022/08/08 01:39:01;;;;;;;;;;;564.00;2432.00;;;;;;5093846;28;19908;-56
2022/08/08 01:41:30;;;;;;;;;;;563.90;2432.00;;;;;;5094082;28;20011;-57
2022/08/08 01:44:14;;;;;;;;;;;564.00;2432.00;;;;;;5093623;28;19950;-56
2022/08/08 01:47:02;;;;;;;;;;;564.00;2432.00;;;;;;5093496;28;19913;-57
2022/08/08 01:49:43;;;;;;;;;;;564.10;2432.00;;;;;;5093727;28;19914;-57
2022/08/08 01:52:32;;;;;;;;;;;588.80;2432.00;;;;;;5093696;28;19912;-56
2022/08/08 01:55:08;;;;;;;;;;;588.80;2432.00;;;;;;5051278;28;19948;-56
2022/08/08 01:57:51;;;;;;;;;;;588.90;2432.00;;;;;;5050913;28;20382;-56
2022/08/08 02:00:29;;;;;;;;;;;588.90;2432.00;;;;;;5050906;28;19986;-56
2022/08/08 02:03:12;;;;;;;;;;;588.90;2432.00;;;;;;5051085;28;20063;-56
2022/08/08 02:05:40;;;;;;;;;;;588.90;2432.00;;;;;;5051164;28;19913;-56
2022/08/08 02:08:15;;;;;;;;;;;588.90;2432.00;;;;;;5051071;28;19917;-56
2022/08/08 02:10:54;;;;;;;;;;;588.90;2432.00;;;;;;5050946;28;19909;-56
2022/08/08 02:13:27;;;;;;;;;;;588.90;2432.00;;;;;;5050986;28;19909;-56
2022/08/08 02:15:59;;;;;;;;;;;588.80;2432.00;;;;;;5050722;28;19909;-56
2022/08/08 02:18:31;;;;;;;;;;;564.10;2432.00;;;;;;5050603;28;19921;-56
2022/08/08 02:23:54;;;;;;;;;;;564.00;2432.00;;;;;;5050871;28;19920;-56
2022/08/08 02:26:25;;;;;;;;;;;563.90;2432.00;;;;;;5050729;28;19909;-56
2022/08/08 02:28:53;;;;;;;;;;;564.00;2432.00;;;;;;5050782;28;19995;-55
2022/08/08 02:31:22;;;;;;;;;;;563.90;2432.00;;;;;;5060205;28;19912;-56
2022/08/08 02:33:58;;;;;;;;;;;563.90;2432.00;;;;;;5093005;28;19916;-56
2022/08/08 02:36:53;;;;;;;;;;;563.90;2432.00;;;;;;5092669;28;19915;-56
2022/08/08 02:39:24;;;;;;;;;;;563.80;2432.00;;;;;;5092817;28;20254;-56
2022/08/08 02:42:09;;;;;;;;;;;563.80;2432.00;;;;;;5092727;28;20341;-57
2022/08/08 02:44:34;;;;;;;;;;;;;;;;;;5092555;28;20007;-57
2022/08/08 02:47:19;;;;;;;;;;;563.40;2432.00;;;;;;5092604;28;20019;-57
2022/08/08 02:50:07;;;;;;;;;;;563.40;2432.00;;;;;;5092243;28;19955;-57
2022/08/08 02:52:36;;;;;;;;;;;563.50;2432.00;;;;;;5092321;28;19908;-56
2022/08/08 02:55:31;;;;;;;;;;;563.40;2432.00;;;;;;5092148;28;19967;-56
2022/08/08 02:58:02;;;;;;;;;;;563.40;2432.00;;;;;;5049988;28;19909;-57
2022/08/08 03:00:46;;;;;;;;;;;563.50;2432.00;;;;;;5049680;28;20365;-57
2022/08/08 03:03:21;;;;;;;;;;;563.60;2432.00;;;;;;5049816;28;19913;-55
2022/08/08 03:05:49;;;;;;;;;;;563.60;2432.00;;;;;;5049890;28;19913;-56
2022/08/08 03:08:32;;;;;;;;;;;563.50;2432.00;;;;;;5049581;28;19917;-56
2022/08/08 03:11:17;;;;;;;;;;;563.50;2432.00;;;;;;5049889;28;19913;-56
2022/08/08 03:13:51;;;;;;;;;;;563.50;2432.00;;;;;;5049596;28;20426;-55
2022/08/08 03:16:19;;;;;;;;;;;563.40;2432.00;;;;;;5049722;28;19932;-56
2022/08/08 03:18:58;;;;;;;;;;;563.40;2432.00;;;;;;5049584;28;20461;-56
2022/08/08 03:21:23;;;;;;;;;;;563.50;2432.00;;;;;;5049200;28;20004;-56
2022/08/08 03:23:49;;;;;;;;;;;563.50;2432.00;;;;;;5049701;28;20000;-56
2022/08/08 03:26:18;;;;;;;;;;;563.60;2432.00;;;;;;5049387;28;19909;-56
2022/08/08 03:28:49;;;;;;;;;;;563.50;2432.00;;;;;;5049379;28;20107;-56
2022/08/08 03:34:04;;;;;;;;;;;563.40;2432.00;;;;;;5066085;28;19993;-56
2022/08/08 03:36:29;;;;;;;;;;;563.40;2432.00;;;;;;5091761;28;20006;-55
2022/08/08 03:38:56;;;;;;;;;;;563.30;2432.00;;;;;;5091777;28;19911;-56
2022/08/08 03:41:29;;;;;;;;;;;563.40;2432.00;;;;;;5091647;28;19908;-57
2022/08/08 03:43:55;;;;;;;;;;;563.40;2432.00;;;;;;5091470;28;19908;-56
2022/08/08 03:46:21;;;;;;;;;;;563.40;2432.00;;;;;;5091269;28;19931;-56
2022/08/08 03:48:57;;;;;;;;;;;563.30;2432.00;;;;;;5091581;28;20390;-56
2022/08/08 03:51:23;;;;;;;;;;;563.20;2432.00;;;;;;5091162;28;20349;-55
2022/08/08 03:53:53;;;;;;;;;;;563.30;2432.00;;;;;;5091353;28;19941;-55
2022/08/08 03:56:19;;;;;;;;;;;563.20;2432.00;;;;;;5091393;28;20440;-56
2022/08/08 03:58:52;;;;;;;;;;;538.40;2406.40;;;;;;5091275;28;20358;-55
2022/08/08 04:01:17;;;;;;;;;;;538.50;2406.40;;;;;;5090620;28;19920;-56
2022/08/08 04:03:44;;;;;;;;;;;538.40;2406.40;;;;;;5091482;28;20273;-55
2022/08/08 04:06:10;;;;;;;;;;;538.40;2406.40;;;;;;5090761;28;19915;-56
2022/08/08 04:08:36;;;;;;;;;;;538.30;2406.40;;;;;;5090981;28;19916;-56
2022/08/08 04:11:03;;;;;;;;;;;538.30;2406.40;;;;;;5091087;28;19908;-55
2022/08/08 04:13:28;;;;;;;;;;;538.30;2406.40;;;;;;5091306;28;19912;-56
2022/08/08 04:15:54;;;;;;;;;;;538.30;2406.40;;;;;;5091026;28;19908;-56
2022/08/08 04:18:19;;;;;;;;;;;538.40;2406.40;;;;;;5091469;28;19998;-56
2022/08/08 04:20:45;;;;;;;;;;;538.40;2406.40;;;;;;5090801;28;20301;-56
2022/08/08 04:23:11;;;;;;;;;;;538.40;2406.40;;;;;;5091328;28;19908;-57
2022/08/08 04:25:36;;;;;;;;;;;538.50;2406.40;;;;;;5091197;28;19909;-55
2022/08/08 04:28:02;;;;;;;;;;;563.20;2432.00;;;;;;5090826;28;19962;-56
2022/08/08 04:30:28;;;;;;;;;;;563.20;2432.00;;;;;;5090984;28;20411;-55
2022/08/08 04:32:54;;;;;;;;;;;563.30;2432.00;;;;;;5090974;28;19912;-56
2022/08/08 04:35:19;;;;;;;;;;;563.30;2432.00;;;;;;5091340;28;19962;-53
2022/08/08 04:37:45;;;;;;;;;;;563.40;2432.00;;;;;;5090699;28;19908;-56
2022/08/08 04:40:11;;;;;;;;;;;563.40;2432.00;;;;;;5091109;28;19908;-55
2022/08/08 04:42:37;;;;;;;;;;;538.50;2406.40;;;;;;5090860;28;19941;-56
2022/08/08 04:45:03;;;;;;;;;;;538.50;2406.40;;;;;;5090864;28;19916;-56
2022/08/08 04:47:29;;;;;;;;;;;563.30;2432.00;;;;;;5090745;28;19920;-54
2022/08/08 04:49:55;;;;;;;;;;;563.40;2432.00;;;;;;5090902;28;19908;-56
2022/08/08 04:52:20;;;;;;;;;;;563.40;2432.00;;;;;;5091059;28;20320;-56
2022/08/08 04:54:46;;;;;;;;;;;563.40;2432.00;;;;;;5090855;28;20411;-56
2022/08/08 04:57:11;;;;;;;;;;;563.60;2432.00;;;;;;5090507;28;19912;-56
2022/08/08 04:59:38;;;;;;;;;;;563.40;2432.00;;;;;;5090800;28;19908;-56
2022/08/08 05:02:03;;;;;;;;;;;563.60;2432.00;;;;;;5068112;28;19928;-56
2022/08/08 05:04:29;;;;;;;;;;;563.40;2432.00;;;;;;5069539;28;20370;-55
2022/08/08 05:06:54;;;;;;;;;;;563.40;2432.00;;;;;;5069917;28;19946;-55
2022/08/08 05:09:20;;;;;;;;;;;563.50;2432.00;;;;;;5070560;28;19912;-55
2022/08/08 05:11:46;;;;;;;;;;;563.60;2432.00;;;;;;5070782;28;20255;-55
2022/08/08 05:14:12;;;;;;;;;;;563.50;2432.00;;;;;;5073910;28;19908;-55
2022/08/08 05:16:37;;;;;;;;;;;563.50;2432.00;;;;;;5074068;28;19987;-56
2022/08/08 05:19:03;;;;;;;;;;;563.60;2432.00;;;;;;5073793;28;19916;-55
2022/08/08 05:21:28;;;;;;;;;;;563.70;2432.00;;;;;;5073945;28;20657;-55
2022/08/08 05:23:54;;;;;;;;;;;563.70;2432.00;;;;;;5073707;28;19909;-56
2022/08/08 05:26:21;;;;;;;;;;;563.70;2432.00;;;;;;5074014;28;19908;-56
2022/08/08 05:28:46;;;;;;;;;;;563.70;2432.00;;;;;;5073872;28;20350;-52
2022/08/08 05:31:12;;;;;;;;;;;563.50;2432.00;;;;;;5070515;28;19999;-56
2022/08/08 05:33:38;;;;;;;;;;;563.20;2432.00;;;;;;5071734;28;19912;-55
2022/08/08 05:36:04;;;;;;;;;;;563.20;2432.00;;;;;;5071505;28;19908;-56
2022/08/08 05:38:31;;;;;;;;;;;538.50;2406.40;;;;;;5071491;28;20007;-55
2022/08/08 05:40:57;;;;;;;;;;;538.50;2406.40;;;;;;5071809;28;19909;-57
2022/08/08 05:43:30;;;;;;;;;;;563.20;2432.00;;;;;;5070990;28;19909;-56
2022/08/08 05:45:57;;;;;;;;;;;563.30;2432.00;;;;;;5071456;28;19982;-52
2022/08/08 05:48:23;;;;;;;;;;;563.30;2432.00;;;;;;5071207;28;19974;-53
2022/08/08 05:50:49;;;;;;;;;;;563.60;2432.00;;;;;;5071554;28;19916;-53
2022/08/08 05:53:24;;;;;;;;;;;563.60;2432.00;;;;;;5070931;28;20350;-54
2022/08/08 05:55:51;;;;;;;;;;;563.70;2432.00;;;;;;5070922;28;20350;-55
2022/08/08 05:58:17;;;;;;;;;;;563.80;2432.00;;;;;;5071303;28;19987;-53
2022/08/08 06:00:43;;;;;;;;;;;563.90;2432.00;;;;;;5070764;28;19959;-55
2022/08/08 06:03:13;;;;;;;;;;;563.90;2432.00;;;;;;5071085;28;20370;-53
2022/08/08 06:05:40;;;;;;;;;;;563.90;2432.00;;;;;;5071101;28;19912;-54
2022/08/08 06:08:06;;;;;;;;;;;564.00;2432.00;;;;;;5070860;28;19916;-54
2022/08/08 06:10:32;;;;;;;;;;;588.80;2432.00;;;;;;5070491;28;19920;-54
2022/08/08 06:12:59;;;;;;;;;;;588.90;2432.00;;;;;;5071204;28;19938;-54
2022/08/08 06:15:25;;;;;;;;;;;589.10;2432.00;;;;;;5070738;28;19916;-54
2022/08/08 06:17:51;;;;;;;;;;;589.30;2432.00;;;;;;5070907;28;19909;-55
2022/08/08 06:20:17;;;;;;;;;;;589.40;2432.00;;;;;;5070856;28;19915;-53
2022/08/08 06:22:43;;;;;;;;;;;589.60;2432.00;;;;;;5070076;28;19913;-55
2022/08/08 06:25:08;;;;;;;;;;;589.60;2432.00;;;;;;5070868;28;20388;-55
2022/08/08 06:27:45;;;;;;;;;;;589.70;2432.00;;;;;;5070576;28;20011;-54
2022/08/08 06:30:11;;;;;;;;;;;614.60;2432.00;;;;;;5070329;28;19912;-53
2022/08/08 06:32:57;;;;;;;;;;;614.60;2432.00;;;;;;5070580;28;19923;-53
2022/08/08 06:35:23;;;;;;;;;;;614.60;2432.00;;;;;;5069480;28;19909;-54
2022/08/08 06:37:51;;;;;;;;;;;614.70;2432.00;;;;;;5070458;28;19916;-56
2022/08/08 06:40:17;;;;;;;;;;;614.70;2432.00;;;;;;5070684;28;19909;-54
2022/08/08 06:42:49;;;;;;;;;;;614.70;2432.00;;;;;;5070249;28;20385;-54
2022/08/08 06:45:15;;;;;;;;;;;614.40;2432.00;;;;;;5070065;28;19908;-55
2022/08/08 06:47:41;;;;;;;;;;;614.50;2432.00;;;;;;5070081;28;20163;-55
2022/08/08 06:50:07;;;;;;;;;;;614.50;2432.00;;;;;;5070259;28;19912;-56
2022/08/08 06:52:33;;;;;;;;;;;614.40;2432.00;;;;;;5069787;28;20362;-54
2022/08/08 06:54:59;;;;;;;;;;;614.50;2432.00;;;;;;5070213;28;19912;-52
2022/08/08 06:57:25;;;;;;;;;;;589.70;2432.00;;;;;;5069985;28;19908;-55
2022/08/08 06:59:54;;;;;;;;;;;589.60;2432.00;;;;;;5069778;28;19916;-53
2022/08/08 07:02:22;;;;;;;;;;;589.70;2432.00;;;;;;5069537;28;19978;-55
2022/08/08 07:04:52;;;;;;;;;;;589.60;2432.00;;;;;;5070106;28;19912;-53
2022/08/08 07:07:21;;;;;;;;;;;589.60;2432.00;;;;;;5069788;28;19917;-55
2022/08/08 07:09:47;;;;;;;;;;;589.60;2432.00;;;;;;5069863;28;19948;-54
2022/08/08 07:12:16;;;;;;;;;;;589.70;2432.00;;;;;;5069685;28;20318;-54
2022/08/08 07:14:50;;;;;;;;;;;614.40;2432.00;;;;;;5069275;28;19908;-55
2022/08/08 07:17:17;;;;;;;;;;;614.60;2432.00;;;;;;5069622;28;19915;-54
2022/08/08 07:19:46;;;;;;;;;;;614.70;2432.00;;;;;;5069515;28;19966;-55
2022/08/08 07:22:13;;;;;;;;;;;614.80;2432.00;;;;;;5069544;28;19908;-54
2022/08/08 07:24:38;;;;;;;;;;;614.90;2432.00;;;;;;5069675;28;19950;-56
2022/08/08 07:27:05;;;;;;;;;;;614.90;2432.00;;;;;;5069068;28;20350;-55
2022/08/08 07:29:32;;;;;;;;;;;615.20;2432.00;;;;;;5069422;28;19920;-55
2022/08/08 07:31:57;;;;;;;;;;;615.30;2432.00;;;;;;5069709;28;19916;-56
2022/08/08 07:34:24;;;;;;;;;;;640.10;2432.00;;;;;;5068561;28;19908;-57
2022/08/08 07:36:49;;;;;;;;;;;665.90;2432.00;;;;;;5069282;28;19962;-59
2022/08/08 07:39:17;;;;;;;;;;;666.30;2432.00;;;;;;5069122;28;19908;-57
2022/08/08 07:41:45;;;;;;;;;;;666.20;2432.00;;;;;;5068814;28;19947;-58
2022/08/08 07:44:10;;;;;;;;;;;691.40;2432.00;;;;;;5069411;28;19908;-57
2022/08/08 07:46:36;;;;;;;;;;;742.50;2432.00;;;;;;5068953;28;19970;-57
2022/08/08 07:49:02;;;;;;;;;;;743.30;2252.80;;;;;;5069151;28;19943;-57
2022/08/08 07:51:27;;;;;;;;;;;743.30;2099.20;;;;;;5069178;28;20378;-59
2022/08/08 07:54:02;;;;;;;;;;;743.20;1996.80;;;;;;5068548;28;19954;-60
2022/08/08 07:56:30;;;;;;;;;;;743.10;2022.40;;;;;;5068994;28;19916;-58
2022/08/08 07:58:56;;;;;;;;;;;743.10;2022.40;;;;;;5068937;28;19930;-59
2022/08/08 08:01:25;;;;;;;;;;;819.50;1843.20;;;;;;5068876;28;20366;-57
2022/08/08 08:03:54;;;;;;;;;;;794.20;1843.20;;;;;;5069066;28;19916;-59
2022/08/08 08:06:20;;;;;;;;;;;845.20;1715.20;;;;;;5068719;28;19959;-57
2022/08/08 08:08:46;;;;;;;;;;;844.80;1689.60;;;;;;5068616;28;19917;-58
2022/08/08 08:11:12;;;;;;;;;;;819.80;1715.20;;;;;;5068874;28;20449;-57
2022/08/08 08:13:38;;;;;;;;;;;794.50;1766.40;;;;;;5069248;28;19999;-59
2022/08/08 08:16:08;;;;;;;;;;;768.30;1843.20;;;;;;5068898;28;20323;-60
2022/08/08 08:18:40;;;;;;;;;;;768.10;1894.40;;;;;;5068769;28;19930;-57
2022/08/08 08:21:07;;;;;;;;;;;743.10;1894.40;;;;;;5068363;28;19908;-59
2022/08/08 08:23:32;;;;;;;;;;;743.00;1920.00;;;;;;5068555;28;19920;-56
2022/08/08 08:25:58;;;;;;;;;;;717.50;1971.20;;;;;;5068807;28;19908;-59
2022/08/08 08:28:24;;;;;;;;;;;717.00;2022.40;;;;;;5068744;28;19964;-56
2022/08/08 08:30:51;;;;;;;;;;;717.20;2022.40;;;;;;5068724;28;19913;-60
2022/08/08 08:33:16;;;;;;;;;;;717.10;2022.40;;;;;;5068101;28;19913;-58
2022/08/08 08:35:42;;;;;;;;;;;717.10;1996.80;;;;;;5068428;28;20058;-57
2022/08/08 08:38:08;;;;;;;;;;;717.50;1996.80;;;;;;5068554;28;19944;-57
2022/08/08 08:40:33;;;;;;;;;;;717.10;2048.00;;;;;;5068386;28;19962;-57
2022/08/08 08:43:00;;;;;;;;;;;717.20;2048.00;;;;;;5068675;28;19916;-58
2022/08/08 08:45:25;;;;;;;;;;;717.30;2073.60;;;;;;5068293;28;19909;-57
2022/08/08 08:47:52;;;;;;;;;;;717.10;2099.20;;;;;;5072559;28;19917;-59
2022/08/08 08:50:17;;;;;;;;;;;717.10;2099.20;;;;;;5072393;28;19912;-58
2022/08/08 08:52:44;;;;;;;;;;;717.30;2099.20;;;;;;5072074;28;19954;-57
2022/08/08 08:55:12;;;;;;;;;;;717.60;2099.20;;;;;;5072348;28;19995;-59
2022/08/08 08:57:38;;;;;;;;;;;742.90;2048.00;;;;;;5072742;28;19966;-57
2022/08/08 09:00:04;;;;;;;;;;;743.10;1996.80;;;;;;5071530;28;19912;-59
2022/08/08 09:02:30;;;;;;;;;;;742.90;1996.80;;;;;;5072334;28;19924;-56
2022/08/08 09:05:00;;;;;;;;;;;742.40;2022.40;;;;;;5073334;28;19908;-57
2022/08/08 09:07:27;;;;;;;;;;;742.40;1971.20;;;;;;5073997;28;20288;-59
2022/08/08 09:09:53;;;;;;;;;;;742.50;1971.20;;;;;;5073922;28;19908;-59
2022/08/08 09:12:22;;;;;;;;;;;717.60;1971.20;;;;;;5074149;28;20415;-59
2022/08/08 09:14:50;;;;;;;;;;;717.50;1945.60;;;;;;5074075;28;19919;-60
2022/08/08 09:17:16;;;;;;;;;;;742.40;1971.20;;;;;;5074009;28;19909;-56
2022/08/08 09:19:42;;;;;;;;;;;742.70;1920.00;;;;;;5074206;28;20009;-60
2022/08/08 09:22:07;;;;;;;;;;;742.50;1945.60;;;;;;5073924;28;19915;-60
2022/08/08 09:24:34;;;;;;;;;;;742.50;1945.60;;;;;;5073786;28;19951;-57
2022/08/08 09:27:07;;;;;;;;;;;717.70;1945.60;;;;;;5073841;28;19912;-60
2022/08/08 09:29:41;;;;;;;;;;;743.00;1920.00;;;;;;5073603;28;19970;-60
2022/08/08 09:32:09;;;;;;;;;;;743.30;1894.40;;;;;;5074054;28;19920;-60
2022/08/08 09:34:37;;;;;;;;;;;743.30;1894.40;;;;;;5073804;28;19908;-59
2022/08/08 09:37:06;;;;;;;;;;;768.40;1868.80;;;;;;5073560;28;19913;-58
2022/08/08 09:39:39;;;;;;;;;;;768.30;1843.20;;;;;;5073930;28;20659;-57
2022/08/08 09:42:09;;;;;;;;;;;768.40;1817.60;;;;;;5073529;28;20369;-60
2022/08/08 09:44:53;;;;;;;;;;;768.20;1843.20;;;;;;5073498;28;19909;-60
2022/08/08 09:47:22;;;;;;;;;;;743.10;1868.80;;;;;;5073700;28;20023;-60
2022/08/08 09:49:48;;;;;;;;;;;768.90;1792.00;;;;;;5073578;28;20282;-60
2022/08/08 09:52:15;;;;;;;;;;;793.70;1792.00;;;;;;5073176;28;19908;-60
2022/08/08 09:54:43;;;;;;;;;;;793.70;1792.00;;;;;;5073687;28;19912;-60
2022/08/08 09:57:10;;;;;;;;;;;768.60;1792.00;;;;;;5073057;28;19909;-60
2022/08/08 09:59:38;;;;;;;;;;;768.10;1843.20;;;;;;5072790;28;19915;-60
2022/08/08 10:02:05;;;;;;;;;;;768.10;1817.60;;;;;;5072875;28;19978;-58
2022/08/08 10:04:31;;;;;;;;;;;768.20;1817.60;;;;;;5073195;28;20305;-60
2022/08/08 10:06:57;;;;;;;;;;;743.30;1843.20;;;;;;5073527;28;20274;-61
2022/08/08 10:09:30;;;;;;;;;;;743.30;1817.60;;;;;;5072861;28;19916;-59
2022/08/08 10:11:56;;;;;;;;;;;768.10;1817.60;;;;;;5072961;28;19909;-58
2022/08/08 10:14:29;;;;;;;;;;;768.20;1817.60;;;;;;5073042;28;19916;-60
2022/08/08 10:16:55;;;;;;;;;;;768.10;1843.20;;;;;;5072974;28;20002;-60
2022/08/08 10:19:21;;;;;;;;;;;768.00;1817.60;;;;;;5072866;28;20118;-60
2022/08/08 10:21:49;;;;;;;;;;;768.20;1843.20;;;;;;5072866;28;20488;-60
2022/08/08 10:24:14;;;;;;;;;;;768.10;1843.20;;;;;;5072768;28;19912;-59
2022/08/08 10:26:43;;;;;;;;;;;768.20;1817.60;;;;;;5072843;28;19908;-61
2022/08/08 10:29:09;;;;;;;;;;;768.30;1817.60;;;;;;5072898;28;19966;-60
2022/08/08 10:34:21;;;;;;;;;;;743.30;1792.00;;;;;;5073121;28;19966;-59
2022/08/08 10:36:47;;;;;;;;;;;743.30;1792.00;;;;;;5072676;28;19919;-58
2022/08/08 10:39:17;;;;;;;;;;;743.00;1817.60;;;;;;5071988;28;19912;-60
2022/08/08 10:41:44;;;;;;;;;;;743.00;1817.60;;;;;;5072529;28;19954;-57
2022/08/08 10:44:11;;;;;;;;;;;742.90;1817.60;;;;;;5072458;28;19913;-60
2022/08/08 10:46:37;;;;;;;;;;;743.00;1817.60;;;;;;5072135;28;19912;-56
2022/08/08 10:49:02;;;;;;;;;;;743.00;1817.60;;;;;;5072259;28;19913;-60
2022/08/08 10:51:29;;;;;;;;;;;743.10;1843.20;;;;;;5072023;28;19953;-59
2022/08/08 10:53:55;;;;;;;;;;;742.90;1817.60;;;;;;5071333;28;20316;-58
2022/08/08 10:56:21;;;;;;;;;;;743.00;1817.60;;;;;;5072256;28;19912;-56
2022/08/08 10:58:55;;;;;;;;;;;743.00;1843.20;;;;;;5072010;28;19909;-57
2022/08/08 11:01:20;;;;;;;;;;;743.00;1868.80;;;;;;5071941;28;19973;-58
2022/08/08 11:03:46;;;;;;;;;;;743.00;1843.20;;;;;;5071798;28;19956;-57
2022/08/08 11:06:14;;;;;;;;;;;743.10;1843.20;;;;;;5071198;28;19928;-58
2022/08/08 11:08:40;;;;;;;;;;;768.10;1843.20;;;;;;5070723;28;19924;-56
2022/08/08 11:11:07;;;;;;;;;;;768.30;1843.20;;;;;;5070745;28;19909;-57
2022/08/08 11:13:39;;;;;;;;;;;768.40;1792.00;;;;;;5070212;28;19923;-59
2022/08/08 11:16:07;;;;;;;;;;;768.60;1817.60;;;;;;5071650;28;20442;-59
2022/08/08 11:18:36;;;;;;;;;;;768.60;1817.60;;;;;;5070502;28;19919;-58
2022/08/08 11:21:03;;;;;;;;;;;768.60;1792.00;;;;;;5071110;28;19912;-58
2022/08/08 11:23:35;;;;;;;;;;;768.60;1792.00;;;;;;5071633;28;19908;-60
2022/08/08 11:26:04;;;;;;;;;;;768.90;1766.40;;;;;;5071737;28;19908;-60
2022/08/08 11:28:33;;;;;;;;;;;793.60;1792.00;;;;;;5071564;28;20330;-60
2022/08/08 11:31:00;;;;;;;;;;;793.70;1740.80;;;;;;5071656;28;19948;-60
2022/08/08 11:33:26;;;;;;;;;;;794.00;1766.40;;;;;;5071451;28;19913;-58
2022/08/08 11:35:52;;;;;;;;;;;794.20;1715.20;;;;;;5071516;28;20481;-59
2022/08/08 11:38:18;;;;;;;;;;;794.30;1766.40;;;;;;5071336;28;19909;-57
2022/08/08 11:40:45;;;;;;;;;;;819.20;1740.80;;;;;;5071243;28;19908;-59
2022/08/08 11:43:11;;;;;;;;;;;819.40;1715.20;;;;;;5071434;28;20274;-58
2022/08/08 11:45:39;;;;;;;;;;;819.60;1715.20;;;;;;5071525;28;20390;-60
2022/08/08 11:48:05;;;;;;;;;;;819.50;1689.60;;;;;;5070952;28;19917;-57
2022/08/08 11:50:31;;;;;;;;;;;819.60;1689.60;;;;;;5071458;28;19909;-58
2022/08/08 11:52:57;;;;;;;;;;;819.60;1689.60;;;;;;5070623;28;19995;-57
2022/08/08 11:55:26;;;;;;;;;;;819.80;1689.60;;;;;;5071013;28;19950;-60
2022/08/08 11:58:07;;;;;;;;;;;820.10;1664.00;;;;;;5071255;28;19909;-57
2022/08/08 12:00:33;;;;;;;;;;;844.90;1664.00;;;;;;5070944;28;19912;-57
2022/08/08 12:02:59;;;;;;;;;;;845.00;1612.80;;;;;;5071136;28;20282;-59
2022/08/08 12:05:32;;;;;;;;;;;845.10;1638.40;;;;;;5071143;28;19995;-57
2022/08/08 12:07:58;;;;;;;;;;;845.20;1612.80;;;;;;5070952;28;19917;-58
2022/08/08 12:10:24;;;;;;;;;;;845.40;1587.20;;;;;;5070824;28;19935;-57
2022/08/08 12:12:59;;;;;;;;;;;845.50;1587.20;;;;;;5071097;28;19994;-56
2022/08/08 12:15:29;;;;;;;;;;;845.70;1587.20;;;;;;5070944;28;19909;-57
2022/08/08 12:17:55;;;;;;;;;;;870.40;1587.20;;;;;;5070947;28;19908;-56
2022/08/08 12:20:21;;;;;;;;;;;870.40;1561.60;;;;;;5070672;28;19909;-57
2022/08/08 12:22:48;;;;;;;;;;;870.50;1561.60;;;;;;5070641;28;19909;-56
2022/08/08 12:25:26;;;;;;;;;;;870.70;1536.00;;;;;;5070616;28;19909;-57
2022/08/08 12:27:52;;;;;;;;;;;870.50;1536.00;;;;;;5070937;28;19916;-56
2022/08/08 12:30:30;;;;;;;;;;;870.70;1536.00;;;;;;5070582;28;20433;-58
2022/08/08 12:32:58;;;;;;;;;;;870.70;1536.00;;;;;;5070808;28;19944;-58
2022/08/08 12:35:26;;;;;;;;;;;870.60;1536.00;;;;;;5070734;28;19951;-58
2022/08/08 12:38:12;;;;;;;;;;;870.60;1536.00;;;;;;5070831;28;19954;-57
2022/08/08 12:40:42;;;;;;;;;;;845.40;1536.00;;;;;;5070942;28;19908;-58
2022/08/08 12:43:08;;;;;;;;;;;845.30;1587.20;;;;;;5070525;28;19913;-58
2022/08/08 12:45:37;;;;;;;;;;;844.90;1561.60;;;;;;5069472;28;19999;-58
2022/08/08 12:48:04;;;;;;;;;;;844.90;1587.20;;;;;;5070459;28;19916;-59
2022/08/08 12:50:37;;;;;;;;;;;845.20;1561.60;;;;;;5070717;28;19909;-57
2022/08/08 12:53:02;;;;;;;;;;;845.20;1587.20;;;;;;5070654;28;20015;-57
2022/08/08 12:55:28;;;;;;;;;;;845.10;1561.60;;;;;;5070577;28;20370;-58
2022/08/08 12:57:53;;;;;;;;;;;844.90;1587.20;;;;;;5070522;28;19909;-57
2022/08/08 13:00:25;;;;;;;;;;;844.90;1612.80;;;;;;5070560;28;20267;-58
2022/08/08 13:02:56;;;;;;;;;;;845.20;1587.20;;;;;;5070567;28;20387;-57
2022/08/08 13:05:23;;;;;;;;;;;845.10;1587.20;;;;;;5070264;28;19916;-58
2022/08/08 13:07:48;;;;;;;;;;;844.90;1587.20;;;;;;5070507;28;19916;-56
2022/08/08 13:10:14;;;;;;;;;;;844.90;1587.20;;;;;;5070375;28;19915;-58
2022/08/08 13:12:44;;;;;;;;;;;820.00;1587.20;;;;;;5070358;28;19991;-58
2022/08/08 13:15:11;;;;;;;;;;;819.90;1587.20;;;;;;5070445;28;20377;-58
2022/08/08 13:17:37;;;;;;;;;;;819.90;1587.20;;;;;;5070526;28;19915;-57
2022/08/08 13:20:05;;;;;;;;;;;819.80;1587.20;;;;;;5070262;28;19908;-56
2022/08/08 13:22:33;;;;;;;;;;;820.10;1587.20;;;;;;5070510;28;19908;-58
2022/08/08 13:24:59;;;;;;;;;;;820.10;1587.20;;;;;;5070407;28;19912;-59
2022/08/08 13:27:28;;;;;;;;;;;820.10;1587.20;;;;;;5070304;28;19998;-57
2022/08/08 13:29:59;;;;;;;;;;;820.10;1587.20;;;;;;5070084;28;19912;-58
2022/08/08 13:32:25;;;;;;;;;;;844.90;1587.20;;;;;;5070088;28;19986;-58
2022/08/08 13:34:57;;;;;;;;;;;845.00;1587.20;;;;;;5073931;28;19909;-57
2022/08/08 13:37:26;;;;;;;;;;;844.90;1587.20;;;;;;5073516;28;20369;-57
2022/08/08 13:39:53;;;;;;;;;;;844.90;1587.20;;;;;;5073656;28;19909;-57
2022/08/08 13:42:19;;;;;;;;;;;844.90;1587.20;;;;;;5073742;28;19915;-58
2022/08/08 13:44:45;;;;;;;;;;;845.00;1587.20;;;;;;5073551;28;19908;-57
2022/08/08 13:47:14;;;;;;;;;;;844.90;1587.20;;;;;;5073514;28;20354;-57
2022/08/08 13:49:40;;;;;;;;;;;844.90;1587.20;;;;;;5073864;28;19935;-57
2022/08/08 13:52:08;;;;;;;;;;;845.20;1587.20;;;;;;5073543;28;20271;-57
2022/08/08 13:54:35;;;;;;;;;;;844.90;1587.20;;;;;;5073361;28;20266;-59
2022/08/08 13:57:02;;;;;;;;;;;845.10;1561.60;;;;;;5073393;28;19909;-57
2022/08/08 13:59:29;;;;;;;;;;;845.20;1561.60;;;;;;5073175;28;20373;-57
2022/08/08 14:01:55;;;;;;;;;;;820.10;1561.60;;;;;;5072765;28;19925;-57
2022/08/08 14:04:22;;;;;;;;;;;820.10;1561.60;;;;;;5073309;28;20003;-57